sensor_id;sensor_type;location;lat;lon;timestamp;P1;durP1;ratioP1;P2;durP2;ratioP2
24357;SDS011;13668;52.154;5.580;2024-02-21T00:01:05;8.15;;;4.32;;
24357;SDS011;13668;52.154;5.580;2024-02-21T00:03:31;8.02;;;4.38;;
24357;SDS011;13668;52.154;5.580;2024-02-21T00:05:57;9.95;;;4.32;;
24357;SDS011;13668;52.154;5.580;2024-02-21T00:08:23;9.50;;;4.53;;
24357;SDS011;13668;52.154;5.580;2024-02-21T00:10:49;9.15;;;4.45;;
24357;SDS011;13668;52.154;5.580;2024-02-21T00:13:15;9.88;;;4.78;;
24357;SDS011;13668;52.154;5.580;2024-02-21T00:15:41;10.27;;;4.35;;
24357;SDS011;13668;52.154;5.580;2024-02-21T00:18:07;8.32;;;4.72;;
24357;SDS011;13668;52.154;5.580;2024-02-21T00:20:33;8.00;;;5.15;;
24357;SDS011;13668;52.154;5.580;2024-02-21T00:22:59;9.82;;;4.00;;
24357;SDS011;13668;52.154;5.580;2024-02-21T00:25:25;9.40;;;4.03;;
24357;SDS011;13668;52.154;5.580;2024-02-21T00:27:51;9.30;;;4.40;;
24357;SDS011;13668;52.154;5.580;2024-02-21T00:30:18;8.73;;;3.97;;
24357;SDS011;13668;52.154;5.580;2024-02-21T00:32:44;13.52;;;4.20;;
24357;SDS011;13668;52.154;5.580;2024-02-21T00:35:10;9.85;;;4.75;;
24357;SDS011;13668;52.154;5.580;2024-02-21T00:37:37;10.27;;;4.15;;
24357;SDS011;13668;52.154;5.580;2024-02-21T00:40:03;8.55;;;4.50;;
24357;SDS011;13668;52.154;5.580;2024-02-21T00:42:30;5.30;;;4.20;;
24357;SDS011;13668;52.154;5.580;2024-02-21T00:44:56;12.20;;;4.43;;
24357;SDS011;13668;52.154;5.580;2024-02-21T00:47:25;8.38;;;3.58;;
24357;SDS011;13668;52.154;5.580;2024-02-21T00:49:51;9.90;;;3.90;;
24357;SDS011;13668;52.154;5.580;2024-02-21T00:52:17;7.13;;;3.33;;
24357;SDS011;13668;52.154;5.580;2024-02-21T00:54:43;9.10;;;3.33;;
24357;SDS011;13668;52.154;5.580;2024-02-21T00:57:09;13.05;;;3.63;;
24357;SDS011;13668;52.154;5.580;2024-02-21T00:59:38;10.13;;;3.75;;
24357;SDS011;13668;52.154;5.580;2024-02-21T01:02:04;7.80;;;3.55;;
24357;SDS011;13668;52.154;5.580;2024-02-21T01:04:30;6.90;;;3.58;;
24357;SDS011;13668;52.154;5.580;2024-02-21T01:06:56;10.73;;;4.72;;
24357;SDS011;13668;52.154;5.580;2024-02-21T01:09:22;6.70;;;3.45;;
24357;SDS011;13668;52.154;5.580;2024-02-21T01:11:47;9.77;;;3.38;;
24357;SDS011;13668;52.154;5.580;2024-02-21T01:14:13;5.82;;;3.60;;
24357;SDS011;13668;52.154;5.580;2024-02-21T01:16:39;8.32;;;3.53;;
24357;SDS011;13668;52.154;5.580;2024-02-21T01:19:11;10.02;;;3.60;;
24357;SDS011;13668;52.154;5.580;2024-02-21T01:21:37;9.88;;;3.55;;
24357;SDS011;13668;52.154;5.580;2024-02-21T01:24:03;7.38;;;3.60;;
24357;SDS011;13668;52.154;5.580;2024-02-21T01:26:29;5.55;;;3.22;;
24357;SDS011;13668;52.154;5.580;2024-02-21T01:28:55;6.18;;;3.70;;
24357;SDS011;13668;52.154;5.580;2024-02-21T01:31:21;9.48;;;3.30;;
24357;SDS011;13668;52.154;5.580;2024-02-21T01:33:47;5.97;;;3.10;;
24357;SDS011;13668;52.154;5.580;2024-02-21T01:36:13;8.88;;;3.80;;
24357;SDS011;13668;52.154;5.580;2024-02-21T01:38:39;7.13;;;4.10;;
24357;SDS011;13668;52.154;5.580;2024-02-21T01:41:05;14.13;;;4.43;;
24357;SDS011;13668;52.154;5.580;2024-02-21T01:43:31;5.82;;;3.58;;
24357;SDS011;13668;52.154;5.580;2024-02-21T01:45:57;6.07;;;3.10;;
24357;SDS011;13668;52.154;5.580;2024-02-21T01:48:23;11.20;;;4.45;;
24357;SDS011;13668;52.154;5.580;2024-02-21T01:50:50;6.60;;;3.50;;
24357;SDS011;13668;52.154;5.580;2024-02-21T01:53:18;4.50;;;3.72;;
24357;SDS011;13668;52.154;5.580;2024-02-21T01:55:45;8.18;;;4.13;;
24357;SDS011;13668;52.154;5.580;2024-02-21T01:58:15;9.27;;;4.35;;
24357;SDS011;13668;52.154;5.580;2024-02-21T02:00:53;8.85;;;4.55;;
24357;SDS011;13668;52.154;5.580;2024-02-21T02:03:19;5.32;;;4.10;;
24357;SDS011;13668;52.154;5.580;2024-02-21T02:05:46;8.93;;;4.05;;
24357;SDS011;13668;52.154;5.580;2024-02-21T02:08:19;10.77;;;5.18;;
24357;SDS011;13668;52.154;5.580;2024-02-21T02:10:47;10.07;;;4.93;;
24357;SDS011;13668;52.154;5.580;2024-02-21T02:13:13;9.70;;;4.30;;
24357;SDS011;13668;52.154;5.580;2024-02-21T02:15:49;8.88;;;4.53;;
24357;SDS011;13668;52.154;5.580;2024-02-21T02:18:15;10.38;;;4.97;;
24357;SDS011;13668;52.154;5.580;2024-02-21T02:20:42;6.68;;;4.55;;
24357;SDS011;13668;52.154;5.580;2024-02-21T02:25:40;8.18;;;3.97;;
24357;SDS011;13668;52.154;5.580;2024-02-21T02:28:07;11.65;;;4.50;;
24357;SDS011;13668;52.154;5.580;2024-02-21T02:30:33;8.88;;;4.72;;
24357;SDS011;13668;52.154;5.580;2024-02-21T02:33:07;9.93;;;4.53;;
24357;SDS011;13668;52.154;5.580;2024-02-21T02:35:33;12.75;;;4.70;;
24357;SDS011;13668;52.154;5.580;2024-02-21T02:38:01;10.98;;;4.97;;
24357;SDS011;13668;52.154;5.580;2024-02-21T02:40:27;10.43;;;4.18;;
24357;SDS011;13668;52.154;5.580;2024-02-21T02:42:53;11.18;;;4.57;;
24357;SDS011;13668;52.154;5.580;2024-02-21T02:45:31;11.07;;;5.50;;
24357;SDS011;13668;52.154;5.580;2024-02-21T02:47:58;7.70;;;4.97;;
24357;SDS011;13668;52.154;5.580;2024-02-21T02:50:24;13.18;;;5.50;;
24357;SDS011;13668;52.154;5.580;2024-02-21T02:53:02;7.18;;;4.53;;
24357;SDS011;13668;52.154;5.580;2024-02-21T02:55:28;10.38;;;5.22;;
24357;SDS011;13668;52.154;5.580;2024-02-21T02:58:00;9.30;;;4.97;;
24357;SDS011;13668;52.154;5.580;2024-02-21T03:00:26;10.75;;;4.47;;
24357;SDS011;13668;52.154;5.580;2024-02-21T03:02:52;5.60;;;4.30;;
24357;SDS011;13668;52.154;5.580;2024-02-21T03:05:19;12.88;;;4.88;;
24357;SDS011;13668;52.154;5.580;2024-02-21T03:07:45;8.18;;;4.85;;
24357;SDS011;13668;52.154;5.580;2024-02-21T03:10:12;9.45;;;5.18;;
24357;SDS011;13668;52.154;5.580;2024-02-21T03:12:44;7.32;;;4.80;;
24357;SDS011;13668;52.154;5.580;2024-02-21T03:15:10;9.70;;;5.15;;
24357;SDS011;13668;52.154;5.580;2024-02-21T03:17:36;11.57;;;4.63;;
24357;SDS011;13668;52.154;5.580;2024-02-21T03:20:03;6.68;;;4.35;;
24357;SDS011;13668;52.154;5.580;2024-02-21T03:22:41;9.57;;;3.85;;
24357;SDS011;13668;52.154;5.580;2024-02-21T03:25:08;13.05;;;5.47;;
24357;SDS011;13668;52.154;5.580;2024-02-21T03:27:35;10.80;;;4.40;;
24357;SDS011;13668;52.154;5.580;2024-02-21T03:30:01;7.78;;;4.28;;
24357;SDS011;13668;52.154;5.580;2024-02-21T03:32:27;12.32;;;4.78;;
24357;SDS011;13668;52.154;5.580;2024-02-21T03:34:53;8.45;;;5.10;;
24357;SDS011;13668;52.154;5.580;2024-02-21T03:37:29;10.23;;;4.65;;
24357;SDS011;13668;52.154;5.580;2024-02-21T03:39:55;7.78;;;3.95;;
24357;SDS011;13668;52.154;5.580;2024-02-21T03:42:20;7.30;;;4.63;;
24357;SDS011;13668;52.154;5.580;2024-02-21T03:44:46;7.97;;;4.22;;
24357;SDS011;13668;52.154;5.580;2024-02-21T03:47:21;7.15;;;4.82;;
24357;SDS011;13668;52.154;5.580;2024-02-21T03:49:47;8.85;;;4.85;;
24357;SDS011;13668;52.154;5.580;2024-02-21T03:52:13;12.20;;;4.82;;
24357;SDS011;13668;52.154;5.580;2024-02-21T03:54:39;10.15;;;4.88;;
24357;SDS011;13668;52.154;5.580;2024-02-21T03:57:17;12.82;;;5.22;;
24357;SDS011;13668;52.154;5.580;2024-02-21T03:59:43;7.90;;;4.25;;
24357;SDS011;13668;52.154;5.580;2024-02-21T04:02:09;8.68;;;4.85;;
24357;SDS011;13668;52.154;5.580;2024-02-21T04:04:35;8.48;;;4.60;;
24357;SDS011;13668;52.154;5.580;2024-02-21T04:07:05;6.35;;;3.95;;
24357;SDS011;13668;52.154;5.580;2024-02-21T04:09:33;10.52;;;4.78;;
24357;SDS011;13668;52.154;5.580;2024-02-21T04:11:59;8.10;;;4.32;;
24357;SDS011;13668;52.154;5.580;2024-02-21T04:14:28;6.90;;;3.90;;
24357;SDS011;13668;52.154;5.580;2024-02-21T04:16:57;10.65;;;4.70;;
24357;SDS011;13668;52.154;5.580;2024-02-21T04:19:23;13.88;;;4.70;;
24357;SDS011;13668;52.154;5.580;2024-02-21T04:21:49;10.45;;;4.78;;
24357;SDS011;13668;52.154;5.580;2024-02-21T04:24:15;8.93;;;4.25;;
24357;SDS011;13668;52.154;5.580;2024-02-21T04:26:50;8.13;;;4.18;;
24357;SDS011;13668;52.154;5.580;2024-02-21T04:29:18;9.90;;;3.80;;
24357;SDS011;13668;52.154;5.580;2024-02-21T04:31:44;8.40;;;4.15;;
24357;SDS011;13668;52.154;5.580;2024-02-21T04:34:10;8.70;;;5.15;;
24357;SDS011;13668;52.154;5.580;2024-02-21T04:36:48;7.85;;;4.18;;
24357;SDS011;13668;52.154;5.580;2024-02-21T04:39:14;7.80;;;4.32;;
24357;SDS011;13668;52.154;5.580;2024-02-21T04:41:40;12.23;;;5.55;;
24357;SDS011;13668;52.154;5.580;2024-02-21T04:44:15;10.25;;;4.72;;
24357;SDS011;13668;52.154;5.580;2024-02-21T04:46:42;8.57;;;4.13;;
24357;SDS011;13668;52.154;5.580;2024-02-21T04:49:21;11.25;;;5.20;;
24357;SDS011;13668;52.154;5.580;2024-02-21T04:51:47;6.90;;;4.40;;
24357;SDS011;13668;52.154;5.580;2024-02-21T04:54:13;10.25;;;5.00;;
24357;SDS011;13668;52.154;5.580;2024-02-21T04:56:42;9.10;;;4.53;;
24357;SDS011;13668;52.154;5.580;2024-02-21T04:59:08;7.25;;;3.88;;
24357;SDS011;13668;52.154;5.580;2024-02-21T05:01:34;6.95;;;4.28;;
24357;SDS011;13668;52.154;5.580;2024-02-21T05:04:00;9.07;;;4.30;;
24357;SDS011;13668;52.154;5.580;2024-02-21T05:06:27;7.88;;;4.05;;
24357;SDS011;13668;52.154;5.580;2024-02-21T05:08:53;8.63;;;4.38;;
24357;SDS011;13668;52.154;5.580;2024-02-21T05:11:20;10.73;;;4.57;;
24357;SDS011;13668;52.154;5.580;2024-02-21T05:13:58;6.07;;;4.43;;
24357;SDS011;13668;52.154;5.580;2024-02-21T05:16:24;11.82;;;4.68;;
24357;SDS011;13668;52.154;5.580;2024-02-21T05:18:50;7.68;;;4.65;;
24357;SDS011;13668;52.154;5.580;2024-02-21T05:21:16;9.02;;;4.70;;
24357;SDS011;13668;52.154;5.580;2024-02-21T05:23:50;8.30;;;4.80;;
24357;SDS011;13668;52.154;5.580;2024-02-21T05:26:22;8.57;;;4.60;;
24357;SDS011;13668;52.154;5.580;2024-02-21T05:28:48;9.43;;;4.78;;
24357;SDS011;13668;52.154;5.580;2024-02-21T05:31:15;9.43;;;4.72;;
24357;SDS011;13668;52.154;5.580;2024-02-21T05:33:50;11.60;;;5.28;;
24357;SDS011;13668;52.154;5.580;2024-02-21T05:36:16;9.80;;;4.60;;
24357;SDS011;13668;52.154;5.580;2024-02-21T05:38:42;9.48;;;4.68;;
24357;SDS011;13668;52.154;5.580;2024-02-21T05:41:08;8.05;;;4.55;;
24357;SDS011;13668;52.154;5.580;2024-02-21T05:43:34;7.65;;;5.07;;
24357;SDS011;13668;52.154;5.580;2024-02-21T05:46:00;9.48;;;4.88;;
24357;SDS011;13668;52.154;5.580;2024-02-21T05:48:26;8.80;;;5.03;;
24357;SDS011;13668;52.154;5.580;2024-02-21T05:50:52;8.77;;;4.35;;
24357;SDS011;13668;52.154;5.580;2024-02-21T05:53:21;9.25;;;4.45;;
24357;SDS011;13668;52.154;5.580;2024-02-21T05:55:50;11.63;;;5.60;;
24357;SDS011;13668;52.154;5.580;2024-02-21T05:58:20;7.50;;;4.85;;
24357;SDS011;13668;52.154;5.580;2024-02-21T06:00:53;10.93;;;5.55;;
24357;SDS011;13668;52.154;5.580;2024-02-21T06:03:28;7.97;;;5.20;;
24357;SDS011;13668;52.154;5.580;2024-02-21T06:06:00;12.85;;;5.65;;
24357;SDS011;13668;52.154;5.580;2024-02-21T06:08:35;10.20;;;5.15;;
24357;SDS011;13668;52.154;5.580;2024-02-21T06:11:10;9.70;;;5.65;;
24357;SDS011;13668;52.154;5.580;2024-02-21T06:13:45;9.48;;;5.45;;
24357;SDS011;13668;52.154;5.580;2024-02-21T06:16:11;9.25;;;5.63;;
24357;SDS011;13668;52.154;5.580;2024-02-21T06:18:40;9.55;;;5.03;;
24357;SDS011;13668;52.154;5.580;2024-02-21T06:21:06;11.32;;;6.15;;
24357;SDS011;13668;52.154;5.580;2024-02-21T06:23:32;10.85;;;6.25;;
24357;SDS011;13668;52.154;5.580;2024-02-21T06:25:58;10.35;;;6.03;;
24357;SDS011;13668;52.154;5.580;2024-02-21T06:28:27;10.80;;;6.13;;
24357;SDS011;13668;52.154;5.580;2024-02-21T06:30:53;15.50;;;5.72;;
24357;SDS011;13668;52.154;5.580;2024-02-21T06:33:19;13.43;;;6.50;;
24357;SDS011;13668;52.154;5.580;2024-02-21T06:35:49;12.80;;;6.97;;
24357;SDS011;13668;52.154;5.580;2024-02-21T06:38:21;13.25;;;7.57;;
24357;SDS011;13668;52.154;5.580;2024-02-21T06:40:53;17.90;;;7.80;;
24357;SDS011;13668;52.154;5.580;2024-02-21T06:43:28;15.32;;;8.40;;
24357;SDS011;13668;52.154;5.580;2024-02-21T06:45:57;14.95;;;8.40;;
24357;SDS011;13668;52.154;5.580;2024-02-21T06:48:32;17.45;;;8.13;;
24357;SDS011;13668;52.154;5.580;2024-02-21T06:51:04;21.45;;;9.65;;
24357;SDS011;13668;52.154;5.580;2024-02-21T06:53:39;23.23;;;8.30;;
24357;SDS011;13668;52.154;5.580;2024-02-21T06:56:05;18.20;;;9.07;;
24357;SDS011;13668;52.154;5.580;2024-02-21T06:58:34;18.42;;;8.32;;
24357;SDS011;13668;52.154;5.580;2024-02-21T07:01:00;18.90;;;8.32;;
24357;SDS011;13668;52.154;5.580;2024-02-21T07:03:26;16.75;;;8.90;;
24357;SDS011;13668;52.154;5.580;2024-02-21T07:06:02;18.30;;;8.82;;
24357;SDS011;13668;52.154;5.580;2024-02-21T07:08:28;14.77;;;7.97;;
24357;SDS011;13668;52.154;5.580;2024-02-21T07:10:54;20.45;;;9.52;;
24357;SDS011;13668;52.154;5.580;2024-02-21T07:13:30;13.60;;;8.32;;
24357;SDS011;13668;52.154;5.580;2024-02-21T07:15:56;15.88;;;7.63;;
24357;SDS011;13668;52.154;5.580;2024-02-21T07:18:52;14.65;;;7.78;;
24357;SDS011;13668;52.154;5.580;2024-02-21T07:21:18;19.27;;;8.82;;
24357;SDS011;13668;52.154;5.580;2024-02-21T07:23:47;19.17;;;7.95;;
24357;SDS011;13668;52.154;5.580;2024-02-21T07:26:16;17.50;;;7.95;;
24357;SDS011;13668;52.154;5.580;2024-02-21T07:28:45;15.73;;;8.05;;
24357;SDS011;13668;52.154;5.580;2024-02-21T07:31:11;18.42;;;8.10;;
24357;SDS011;13668;52.154;5.580;2024-02-21T07:33:46;20.92;;;7.22;;
24357;SDS011;13668;52.154;5.580;2024-02-21T07:36:12;11.93;;;6.85;;
24357;SDS011;13668;52.154;5.580;2024-02-21T07:38:38;12.50;;;7.40;;
24357;SDS011;13668;52.154;5.580;2024-02-21T07:41:06;18.17;;;7.25;;
24357;SDS011;13668;52.154;5.580;2024-02-21T07:43:32;12.77;;;7.13;;
24357;SDS011;13668;52.154;5.580;2024-02-21T07:46:01;14.60;;;7.32;;
24357;SDS011;13668;52.154;5.580;2024-02-21T07:51:44;9.80;;;5.45;;
24357;SDS011;13668;52.154;5.580;2024-02-21T07:54:10;13.20;;;5.93;;
24357;SDS011;13668;52.154;5.580;2024-02-21T07:56:59;15.65;;;6.60;;
24357;SDS011;13668;52.154;5.580;2024-02-21T07:59:37;13.85;;;5.88;;
24357;SDS011;13668;52.154;5.580;2024-02-21T08:02:06;11.07;;;5.88;;
24357;SDS011;13668;52.154;5.580;2024-02-21T08:04:32;10.07;;;5.93;;
24357;SDS011;13668;52.154;5.580;2024-02-21T08:07:07;12.90;;;6.88;;
24357;SDS011;13668;52.154;5.580;2024-02-21T08:09:39;15.55;;;6.05;;
24357;SDS011;13668;52.154;5.580;2024-02-21T08:12:05;11.40;;;6.45;;
24357;SDS011;13668;52.154;5.580;2024-02-21T08:14:31;11.85;;;5.10;;
24357;SDS011;13668;52.154;5.580;2024-02-21T08:16:59;13.85;;;6.85;;
24357;SDS011;13668;52.154;5.580;2024-02-21T08:19:25;19.58;;;6.82;;
24357;SDS011;13668;52.154;5.580;2024-02-21T08:22:01;10.77;;;5.68;;
24357;SDS011;13668;52.154;5.580;2024-02-21T08:24:40;13.45;;;6.38;;
24357;SDS011;13668;52.154;5.580;2024-02-21T08:27:18;10.02;;;5.78;;
24357;SDS011;13668;52.154;5.580;2024-02-21T08:29:57;10.70;;;5.30;;
24357;SDS011;13668;52.154;5.580;2024-02-21T08:32:22;13.88;;;6.13;;
24357;SDS011;13668;52.154;5.580;2024-02-21T08:35:01;15.43;;;6.20;;
24357;SDS011;13668;52.154;5.580;2024-02-21T08:37:27;10.07;;;5.45;;
24357;SDS011;13668;52.154;5.580;2024-02-21T08:39:53;12.07;;;5.72;;
24357;SDS011;13668;52.154;5.580;2024-02-21T08:42:19;10.07;;;5.43;;
24357;SDS011;13668;52.154;5.580;2024-02-21T08:44:45;11.20;;;6.10;;
24357;SDS011;13668;52.154;5.580;2024-02-21T08:47:11;10.02;;;5.60;;
24357;SDS011;13668;52.154;5.580;2024-02-21T08:49:37;8.75;;;5.82;;
24357;SDS011;13668;52.154;5.580;2024-02-21T08:52:03;15.77;;;6.82;;
24357;SDS011;13668;52.154;5.580;2024-02-21T08:54:30;11.40;;;6.25;;
24357;SDS011;13668;52.154;5.580;2024-02-21T08:56:56;13.85;;;5.78;;
24357;SDS011;13668;52.154;5.580;2024-02-21T08:59:22;9.25;;;5.65;;
24357;SDS011;13668;52.154;5.580;2024-02-21T09:01:48;12.35;;;6.20;;
24357;SDS011;13668;52.154;5.580;2024-02-21T09:04:14;10.10;;;5.70;;
24357;SDS011;13668;52.154;5.580;2024-02-21T09:06:40;12.90;;;5.95;;
24357;SDS011;13668;52.154;5.580;2024-02-21T09:09:08;11.70;;;5.88;;
24357;SDS011;13668;52.154;5.580;2024-02-21T09:11:37;11.02;;;5.93;;
24357;SDS011;13668;52.154;5.580;2024-02-21T09:14:03;11.38;;;6.00;;
24357;SDS011;13668;52.154;5.580;2024-02-21T09:16:32;11.00;;;5.15;;
24357;SDS011;13668;52.154;5.580;2024-02-21T09:18:58;11.48;;;5.60;;
24357;SDS011;13668;52.154;5.580;2024-02-21T09:21:25;9.02;;;5.30;;
24357;SDS011;13668;52.154;5.580;2024-02-21T09:23:51;9.65;;;5.75;;
24357;SDS011;13668;52.154;5.580;2024-02-21T09:26:17;11.25;;;5.13;;
24357;SDS011;13668;52.154;5.580;2024-02-21T09:28:43;11.02;;;4.82;;
24357;SDS011;13668;52.154;5.580;2024-02-21T09:31:10;10.00;;;5.22;;
24357;SDS011;13668;52.154;5.580;2024-02-21T09:33:36;10.75;;;5.13;;
24357;SDS011;13668;52.154;5.580;2024-02-21T09:36:05;14.40;;;6.40;;
24357;SDS011;13668;52.154;5.580;2024-02-21T09:38:31;13.65;;;4.75;;
24357;SDS011;13668;52.154;5.580;2024-02-21T09:41:21;9.43;;;4.53;;
24357;SDS011;13668;52.154;5.580;2024-02-21T09:43:44;10.07;;;5.00;;
24357;SDS011;13668;52.154;5.580;2024-02-21T09:46:17;7.43;;;4.38;;
24357;SDS011;13668;52.154;5.580;2024-02-21T09:49:21;11.05;;;5.55;;
24357;SDS011;13668;52.154;5.580;2024-02-21T09:51:38;11.85;;;4.57;;
24357;SDS011;13668;52.154;5.580;2024-02-21T09:54:06;10.93;;;4.68;;
24357;SDS011;13668;52.154;5.580;2024-02-21T09:56:33;9.75;;;4.95;;
24357;SDS011;13668;52.154;5.580;2024-02-21T09:58:59;10.48;;;5.13;;
24357;SDS011;13668;52.154;5.580;2024-02-21T10:01:25;7.43;;;4.65;;
24357;SDS011;13668;52.154;5.580;2024-02-21T10:03:51;7.35;;;4.70;;
24357;SDS011;13668;52.154;5.580;2024-02-21T10:06:16;7.60;;;4.95;;
24357;SDS011;13668;52.154;5.580;2024-02-21T10:08:42;8.82;;;6.13;;
24357;SDS011;13668;52.154;5.580;2024-02-21T10:11:09;8.23;;;4.85;;
24357;SDS011;13668;52.154;5.580;2024-02-21T10:13:35;8.55;;;4.32;;
24357;SDS011;13668;52.154;5.580;2024-02-21T10:16:06;11.05;;;4.47;;
24357;SDS011;13668;52.154;5.580;2024-02-21T10:18:33;9.00;;;5.00;;
24357;SDS011;13668;52.154;5.580;2024-02-21T10:21:05;5.88;;;4.28;;
24357;SDS011;13668;52.154;5.580;2024-02-21T10:23:44;9.00;;;4.65;;
24357;SDS011;13668;52.154;5.580;2024-02-21T10:26:11;6.82;;;3.75;;
24357;SDS011;13668;52.154;5.580;2024-02-21T10:28:37;10.43;;;4.32;;
24357;SDS011;13668;52.154;5.580;2024-02-21T10:31:07;7.90;;;4.03;;
24357;SDS011;13668;52.154;5.580;2024-02-21T10:33:33;7.90;;;3.85;;
24357;SDS011;13668;52.154;5.580;2024-02-21T10:36:12;7.53;;;4.25;;
24357;SDS011;13668;52.154;5.580;2024-02-21T10:38:38;5.75;;;3.85;;
24357;SDS011;13668;52.154;5.580;2024-02-21T10:41:04;5.22;;;3.20;;
24357;SDS011;13668;52.154;5.580;2024-02-21T10:43:33;3.85;;;3.13;;
24357;SDS011;13668;52.154;5.580;2024-02-21T10:46:02;6.65;;;3.83;;
24357;SDS011;13668;52.154;5.580;2024-02-21T10:48:30;7.10;;;3.47;;
24357;SDS011;13668;52.154;5.580;2024-02-21T10:56:39;4.57;;;3.35;;
24357;SDS011;13668;52.154;5.580;2024-02-21T10:59:09;5.10;;;3.15;;
24357;SDS011;13668;52.154;5.580;2024-02-21T11:01:35;4.05;;;3.13;;
24357;SDS011;13668;52.154;5.580;2024-02-21T11:04:02;4.18;;;3.10;;
24357;SDS011;13668;52.154;5.580;2024-02-21T11:06:28;4.07;;;3.00;;
24357;SDS011;13668;52.154;5.580;2024-02-21T11:11:32;6.35;;;3.78;;
24357;SDS011;13668;52.154;5.580;2024-02-21T11:14:07;5.18;;;2.75;;
24357;SDS011;13668;52.154;5.580;2024-02-21T11:16:37;5.93;;;3.22;;
24357;SDS011;13668;52.154;5.580;2024-02-21T11:19:22;4.85;;;3.00;;
24357;SDS011;13668;52.154;5.580;2024-02-21T11:21:49;6.60;;;4.13;;
24357;SDS011;13668;52.154;5.580;2024-02-21T11:24:27;4.70;;;3.00;;
24357;SDS011;13668;52.154;5.580;2024-02-21T11:26:54;5.80;;;3.22;;
24357;SDS011;13668;52.154;5.580;2024-02-21T11:29:23;5.05;;;3.63;;
24357;SDS011;13668;52.154;5.580;2024-02-21T11:31:50;4.00;;;3.60;;
24357;SDS011;13668;52.154;5.580;2024-02-21T11:34:17;7.30;;;4.40;;
24357;SDS011;13668;52.154;5.580;2024-02-21T11:36:53;6.63;;;4.65;;
24357;SDS011;13668;52.154;5.580;2024-02-21T11:41:46;5.65;;;4.25;;
24357;SDS011;13668;52.154;5.580;2024-02-21T11:44:12;5.97;;;4.20;;
24357;SDS011;13668;52.154;5.580;2024-02-21T11:46:38;6.28;;;4.22;;
24357;SDS011;13668;52.154;5.580;2024-02-21T11:49:04;6.88;;;5.10;;
24357;SDS011;13668;52.154;5.580;2024-02-21T11:51:30;6.78;;;4.38;;
24357;SDS011;13668;52.154;5.580;2024-02-21T11:53:56;7.40;;;5.05;;
24357;SDS011;13668;52.154;5.580;2024-02-21T11:56:22;7.63;;;5.38;;
24357;SDS011;13668;52.154;5.580;2024-02-21T11:58:48;6.03;;;4.63;;
24357;SDS011;13668;52.154;5.580;2024-02-21T12:01:15;7.57;;;4.43;;
24357;SDS011;13668;52.154;5.580;2024-02-21T12:03:42;5.50;;;4.57;;
24357;SDS011;13668;52.154;5.580;2024-02-21T12:06:14;5.93;;;4.43;;
24357;SDS011;13668;52.154;5.580;2024-02-21T12:08:44;8.50;;;5.07;;
24357;SDS011;13668;52.154;5.580;2024-02-21T12:11:20;9.00;;;5.68;;
24357;SDS011;13668;52.154;5.580;2024-02-21T12:13:47;7.78;;;4.97;;
24357;SDS011;13668;52.154;5.580;2024-02-21T12:16:15;9.00;;;5.38;;
24357;SDS011;13668;52.154;5.580;2024-02-21T12:18:43;7.18;;;4.75;;
24357;SDS011;13668;52.154;5.580;2024-02-21T12:21:09;6.10;;;4.47;;
24357;SDS011;13668;52.154;5.580;2024-02-21T12:23:37;6.80;;;4.15;;
24357;SDS011;13668;52.154;5.580;2024-02-21T12:26:07;8.20;;;4.80;;
24357;SDS011;13668;52.154;5.580;2024-02-21T12:28:33;5.50;;;3.85;;
24357;SDS011;13668;52.154;5.580;2024-02-21T12:30:59;6.38;;;4.68;;
24357;SDS011;13668;52.154;5.580;2024-02-21T12:33:25;7.30;;;4.47;;
24357;SDS011;13668;52.154;5.580;2024-02-21T12:35:51;5.85;;;3.70;;
24357;SDS011;13668;52.154;5.580;2024-02-21T12:38:19;6.00;;;3.90;;
24357;SDS011;13668;52.154;5.580;2024-02-21T12:40:45;9.32;;;4.00;;
24357;SDS011;13668;52.154;5.580;2024-02-21T12:43:11;8.70;;;4.28;;
24357;SDS011;13668;52.154;5.580;2024-02-21T12:45:38;5.60;;;3.60;;
24357;SDS011;13668;52.154;5.580;2024-02-21T12:48:04;4.40;;;3.60;;
24357;SDS011;13668;52.154;5.580;2024-02-21T12:50:30;5.63;;;3.60;;
24357;SDS011;13668;52.154;5.580;2024-02-21T12:52:56;6.03;;;3.90;;
24357;SDS011;13668;52.154;5.580;2024-02-21T12:55:23;3.75;;;3.05;;
24357;SDS011;13668;52.154;5.580;2024-02-21T12:57:49;7.07;;;3.80;;
24357;SDS011;13668;52.154;5.580;2024-02-21T13:00:15;6.03;;;3.55;;
24357;SDS011;13668;52.154;5.580;2024-02-21T13:02:41;6.68;;;3.47;;
24357;SDS011;13668;52.154;5.580;2024-02-21T13:05:07;7.40;;;3.28;;
24357;SDS011;13668;52.154;5.580;2024-02-21T13:07:33;5.88;;;3.50;;
24357;SDS011;13668;52.154;5.580;2024-02-21T13:09:59;4.65;;;3.47;;
24357;SDS011;13668;52.154;5.580;2024-02-21T13:12:25;8.07;;;3.55;;
24357;SDS011;13668;52.154;5.580;2024-02-21T13:14:52;6.78;;;3.50;;
24357;SDS011;13668;52.154;5.580;2024-02-21T13:17:19;5.82;;;3.88;;
24357;SDS011;13668;52.154;5.580;2024-02-21T13:19:49;5.88;;;3.53;;
24357;SDS011;13668;52.154;5.580;2024-02-21T13:22:15;3.40;;;3.10;;
24357;SDS011;13668;52.154;5.580;2024-02-21T13:24:41;8.07;;;3.80;;
24357;SDS011;13668;52.154;5.580;2024-02-21T13:27:07;5.28;;;3.75;;
24357;SDS011;13668;52.154;5.580;2024-02-21T13:29:34;5.15;;;3.28;;
24357;SDS011;13668;52.154;5.580;2024-02-21T13:32:03;5.88;;;3.55;;
24357;SDS011;13668;52.154;5.580;2024-02-21T13:34:32;4.22;;;3.30;;
24357;SDS011;13668;52.154;5.580;2024-02-21T13:37:04;4.55;;;3.15;;
24357;SDS011;13668;52.154;5.580;2024-02-21T13:39:32;6.05;;;3.70;;
24357;SDS011;13668;52.154;5.580;2024-02-21T13:41:59;5.22;;;2.83;;
24357;SDS011;13668;52.154;5.580;2024-02-21T13:44:25;4.20;;;3.00;;
24357;SDS011;13668;52.154;5.580;2024-02-21T13:46:51;4.22;;;3.20;;
24357;SDS011;13668;52.154;5.580;2024-02-21T13:49:17;7.32;;;3.47;;
24357;SDS011;13668;52.154;5.580;2024-02-21T13:51:43;7.97;;;3.20;;
24357;SDS011;13668;52.154;5.580;2024-02-21T13:54:10;3.90;;;2.85;;
24357;SDS011;13668;52.154;5.580;2024-02-21T13:56:36;9.20;;;3.17;;
24357;SDS011;13668;52.154;5.580;2024-02-21T13:59:02;4.25;;;3.45;;
24357;SDS011;13668;52.154;5.580;2024-02-21T14:01:29;7.90;;;2.80;;
24357;SDS011;13668;52.154;5.580;2024-02-21T14:03:57;4.68;;;2.63;;
24357;SDS011;13668;52.154;5.580;2024-02-21T14:06:23;5.97;;;3.00;;
24357;SDS011;13668;52.154;5.580;2024-02-21T14:08:48;4.85;;;3.35;;
24357;SDS011;13668;52.154;5.580;2024-02-21T14:11:15;5.43;;;3.80;;
24357;SDS011;13668;52.154;5.580;2024-02-21T14:13:41;6.10;;;3.20;;
24357;SDS011;13668;52.154;5.580;2024-02-21T14:16:10;6.43;;;2.92;;
24357;SDS011;13668;52.154;5.580;2024-02-21T14:18:41;5.50;;;3.40;;
24357;SDS011;13668;52.154;5.580;2024-02-21T14:21:07;7.90;;;3.15;;
24357;SDS011;13668;52.154;5.580;2024-02-21T14:23:35;5.50;;;3.35;;
24357;SDS011;13668;52.154;5.580;2024-02-21T14:26:02;3.65;;;2.67;;
24357;SDS011;13668;52.154;5.580;2024-02-21T14:28:28;6.68;;;2.78;;
24357;SDS011;13668;52.154;5.580;2024-02-21T14:30:54;5.68;;;3.17;;
24357;SDS011;13668;52.154;5.580;2024-02-21T14:33:22;5.07;;;2.33;;
24357;SDS011;13668;52.154;5.580;2024-02-21T14:35:49;5.57;;;3.00;;
24357;SDS011;13668;52.154;5.580;2024-02-21T14:38:16;5.00;;;2.38;;
24357;SDS011;13668;52.154;5.580;2024-02-21T14:40:42;9.90;;;2.38;;
24357;SDS011;13668;52.154;5.580;2024-02-21T14:43:11;6.45;;;3.08;;
24357;SDS011;13668;52.154;5.580;2024-02-21T14:45:37;5.03;;;2.67;;
24357;SDS011;13668;52.154;5.580;2024-02-21T14:48:04;2.40;;;2.17;;
24357;SDS011;13668;52.154;5.580;2024-02-21T14:50:30;5.38;;;2.30;;
24357;SDS011;13668;52.154;5.580;2024-02-21T14:52:56;3.45;;;2.65;;
24357;SDS011;13668;52.154;5.580;2024-02-21T14:55:22;2.38;;;1.98;;
24357;SDS011;13668;52.154;5.580;2024-02-21T14:57:51;2.97;;;2.35;;
24357;SDS011;13668;52.154;5.580;2024-02-21T15:00:18;6.20;;;2.05;;
24357;SDS011;13668;52.154;5.580;2024-02-21T15:02:44;3.60;;;2.20;;
24357;SDS011;13668;52.154;5.580;2024-02-21T15:05:10;3.53;;;2.08;;